Corydon, Kentucky
Current Conditions -  °F | °C
As of 3:54 PM on Friday 24 Oct 2014 (Local Time) from KEVV Reporting Station
Few Clouds Few Clouds  
Wind Chill: 69°   Ceiling: Unl
Heat Index: 69°   Visibility: 10mi
Dew Point: 51°   Wind: 7mph
Humidity: 53%   Direction: NA
Pressure: 30.05"   Gusts: NA
Location:  37.74°N, 87.7°W
Report Text: KEVV 242054Z VRB06KT 10SM FEW041 21/11 A3005 RMK AO2 SLP175 T02060106 56016 $
Loading
Personal Weather Stations






























Interactive Weather Map
Tropical Storm Tracking
New forecast layout! Learn more

10-Day Weather Forecast

Advertisements
Track Severe Weather on mobile